sensor_id;sensor_type;location;lat;lon;timestamp;temperature;humidity
59857;DHT22;45733;52.668;6.860;2024-01-30T00:01:22;8.70;99.90
59857;DHT22;45733;52.668;6.860;2024-01-30T00:03:48;8.60;99.90
59857;DHT22;45733;52.668;6.860;2024-01-30T00:06:14;8.80;99.90
59857;DHT22;45733;52.668;6.860;2024-01-30T00:08:39;8.90;99.90
59857;DHT22;45733;52.668;6.860;2024-01-30T00:11:05;8.90;99.90
59857;DHT22;45733;52.668;6.860;2024-01-30T00:13:32;8.80;99.90
59857;DHT22;45733;52.668;6.860;2024-01-30T00:15:58;9.10;99.90
59857;DHT22;45733;52.668;6.860;2024-01-30T00:18:23;9.10;99.90
59857;DHT22;45733;52.668;6.860;2024-01-30T00:20:49;9.10;99.90
59857;DHT22;45733;52.668;6.860;2024-01-30T00:23:15;9.10;99.90
59857;DHT22;45733;52.668;6.860;2024-01-30T00:25:40;9.10;99.90
59857;DHT22;45733;52.668;6.860;2024-01-30T00:28:06;9.10;99.90
59857;DHT22;45733;52.668;6.860;2024-01-30T00:30:32;9.00;99.90
59857;DHT22;45733;52.668;6.860;2024-01-30T00:32:57;8.90;99.90
59857;DHT22;45733;52.668;6.860;2024-01-30T00:35:23;8.90;99.90
59857;DHT22;45733;52.668;6.860;2024-01-30T00:37:49;8.90;99.90
59857;DHT22;45733;52.668;6.860;2024-01-30T00:40:14;8.90;99.90
59857;DHT22;45733;52.668;6.860;2024-01-30T00:42:44;8.90;99.90
59857;DHT22;45733;52.668;6.860;2024-01-30T00:45:16;8.90;99.90
59857;DHT22;45733;52.668;6.860;2024-01-30T00:47:42;8.90;99.90
59857;DHT22;45733;52.668;6.860;2024-01-30T00:50:09;8.80;99.90
59857;DHT22;45733;52.668;6.860;2024-01-30T00:52:37;8.80;99.90
59857;DHT22;45733;52.668;6.860;2024-01-30T00:55:05;8.80;99.90
59857;DHT22;45733;52.668;6.860;2024-01-30T00:57:30;8.80;99.90
59857;DHT22;45733;52.668;6.860;2024-01-30T00:59:57;8.80;99.90
59857;DHT22;45733;52.668;6.860;2024-01-30T01:02:22;8.80;99.90
59857;DHT22;45733;52.668;6.860;2024-01-30T01:04:48;8.80;99.90
59857;DHT22;45733;52.668;6.860;2024-01-30T01:07:14;8.80;99.90
59857;DHT22;45733;52.668;6.860;2024-01-30T01:09:39;8.70;99.90
59857;DHT22;45733;52.668;6.860;2024-01-30T01:12:05;8.70;99.90
59857;DHT22;45733;52.668;6.860;2024-01-30T01:14:31;8.70;99.90
59857;DHT22;45733;52.668;6.860;2024-01-30T01:16:57;8.60;99.90
59857;DHT22;45733;52.668;6.860;2024-01-30T01:19:22;8.80;99.90
59857;DHT22;45733;52.668;6.860;2024-01-30T01:21:48;8.60;99.90
59857;DHT22;45733;52.668;6.860;2024-01-30T01:24:14;8.60;99.90
59857;DHT22;45733;52.668;6.860;2024-01-30T01:26:39;8.80;99.90
59857;DHT22;45733;52.668;6.860;2024-01-30T01:29:08;8.70;99.90
59857;DHT22;45733;52.668;6.860;2024-01-30T01:31:37;8.90;99.90
59857;DHT22;45733;52.668;6.860;2024-01-30T01:34:10;9.00;99.90
59857;DHT22;45733;52.668;6.860;2024-01-30T01:36:35;9.10;99.90
59857;DHT22;45733;52.668;6.860;2024-01-30T01:39:01;9.00;99.90
59857;DHT22;45733;52.668;6.860;2024-01-30T01:41:31;9.00;99.90
59857;DHT22;45733;52.668;6.860;2024-01-30T01:43:58;9.00;99.90
59857;DHT22;45733;52.668;6.860;2024-01-30T01:46:28;8.90;99.90
59857;DHT22;45733;52.668;6.860;2024-01-30T01:48:55;8.90;99.90
59857;DHT22;45733;52.668;6.860;2024-01-30T01:51:23;8.80;99.90
59857;DHT22;45733;52.668;6.860;2024-01-30T01:53:50;8.90;99.90
59857;DHT22;45733;52.668;6.860;2024-01-30T01:56:16;8.90;99.90
59857;DHT22;45733;52.668;6.860;2024-01-30T01:58:44;8.90;99.90
59857;DHT22;45733;52.668;6.860;2024-01-30T02:01:12;8.90;99.90
59857;DHT22;45733;52.668;6.860;2024-01-30T02:03:39;8.80;99.90
59857;DHT22;45733;52.668;6.860;2024-01-30T02:06:06;8.80;99.90
59857;DHT22;45733;52.668;6.860;2024-01-30T02:08:32;8.70;99.90
59857;DHT22;45733;52.668;6.860;2024-01-30T02:10:59;8.70;99.90
59857;DHT22;45733;52.668;6.860;2024-01-30T02:13:25;8.80;99.90
59857;DHT22;45733;52.668;6.860;2024-01-30T02:15:53;8.80;99.90
59857;DHT22;45733;52.668;6.860;2024-01-30T02:18:20;8.70;99.90
59857;DHT22;45733;52.668;6.860;2024-01-30T02:20:47;8.70;99.90
59857;DHT22;45733;52.668;6.860;2024-01-30T02:23:15;8.70;99.90
59857;DHT22;45733;52.668;6.860;2024-01-30T02:25:42;8.80;99.90
59857;DHT22;45733;52.668;6.860;2024-01-30T02:28:12;8.80;99.90
59857;DHT22;45733;52.668;6.860;2024-01-30T02:30:44;8.90;99.90
59857;DHT22;45733;52.668;6.860;2024-01-30T02:33:10;8.90;99.90
59857;DHT22;45733;52.668;6.860;2024-01-30T02:35:36;8.80;99.90
59857;DHT22;45733;52.668;6.860;2024-01-30T02:38:02;8.80;99.90
59857;DHT22;45733;52.668;6.860;2024-01-30T02:40:27;8.90;99.90
59857;DHT22;45733;52.668;6.860;2024-01-30T02:42:53;8.90;99.90
59857;DHT22;45733;52.668;6.860;2024-01-30T02:45:19;8.90;99.90
59857;DHT22;45733;52.668;6.860;2024-01-30T02:47:45;9.00;99.90
59857;DHT22;45733;52.668;6.860;2024-01-30T02:50:11;8.90;99.90
59857;DHT22;45733;52.668;6.860;2024-01-30T02:52:37;8.80;99.90
59857;DHT22;45733;52.668;6.860;2024-01-30T02:55:03;8.90;99.90
59857;DHT22;45733;52.668;6.860;2024-01-30T02:57:29;9.00;99.90
59857;DHT22;45733;52.668;6.860;2024-01-30T02:59:54;8.90;99.90
59857;DHT22;45733;52.668;6.860;2024-01-30T03:02:20;8.90;99.90
59857;DHT22;45733;52.668;6.860;2024-01-30T03:04:46;9.00;99.90
59857;DHT22;45733;52.668;6.860;2024-01-30T03:07:12;8.90;99.90
59857;DHT22;45733;52.668;6.860;2024-01-30T03:09:38;9.00;99.90
59857;DHT22;45733;52.668;6.860;2024-01-30T03:12:04;9.00;99.90
59857;DHT22;45733;52.668;6.860;2024-01-30T03:14:33;9.10;99.90
59857;DHT22;45733;52.668;6.860;2024-01-30T03:16:58;9.20;99.90
59857;DHT22;45733;52.668;6.860;2024-01-30T03:19:24;9.20;99.90
59857;DHT22;45733;52.668;6.860;2024-01-30T03:21:50;9.20;99.90
59857;DHT22;45733;52.668;6.860;2024-01-30T03:24:16;9.20;99.90
59857;DHT22;45733;52.668;6.860;2024-01-30T03:26:43;9.30;99.90
59857;DHT22;45733;52.668;6.860;2024-01-30T03:29:09;9.30;99.90
59857;DHT22;45733;52.668;6.860;2024-01-30T03:31:34;9.30;99.90
59857;DHT22;45733;52.668;6.860;2024-01-30T03:34:01;9.40;99.90
59857;DHT22;45733;52.668;6.860;2024-01-30T03:36:27;9.40;99.90
59857;DHT22;45733;52.668;6.860;2024-01-30T03:38:52;9.40;99.90
59857;DHT22;45733;52.668;6.860;2024-01-30T03:41:18;9.40;99.90
59857;DHT22;45733;52.668;6.860;2024-01-30T03:43:44;9.30;99.90
59857;DHT22;45733;52.668;6.860;2024-01-30T03:46:12;9.30;99.90
59857;DHT22;45733;52.668;6.860;2024-01-30T03:48:37;9.40;99.90
59857;DHT22;45733;52.668;6.860;2024-01-30T03:51:03;9.50;99.90
59857;DHT22;45733;52.668;6.860;2024-01-30T03:53:29;9.40;99.90
59857;DHT22;45733;52.668;6.860;2024-01-30T03:55:55;9.40;99.90
59857;DHT22;45733;52.668;6.860;2024-01-30T03:58:21;9.30;99.90
59857;DHT22;45733;52.668;6.860;2024-01-30T04:00:47;9.30;99.90
59857;DHT22;45733;52.668;6.860;2024-01-30T04:03:14;9.30;99.90
59857;DHT22;45733;52.668;6.860;2024-01-30T04:05:41;9.20;99.90
59857;DHT22;45733;52.668;6.860;2024-01-30T04:08:07;9.30;99.90
59857;DHT22;45733;52.668;6.860;2024-01-30T04:10:33;9.30;99.90
59857;DHT22;45733;52.668;6.860;2024-01-30T04:12:59;9.40;99.90
59857;DHT22;45733;52.668;6.860;2024-01-30T04:15:25;9.30;99.90
59857;DHT22;45733;52.668;6.860;2024-01-30T04:17:51;9.40;99.90
59857;DHT22;45733;52.668;6.860;2024-01-30T04:20:17;9.50;99.90
59857;DHT22;45733;52.668;6.860;2024-01-30T04:22:46;9.40;99.90
59857;DHT22;45733;52.668;6.860;2024-01-30T04:25:13;9.50;99.90
59857;DHT22;45733;52.668;6.860;2024-01-30T04:27:39;9.40;99.90
59857;DHT22;45733;52.668;6.860;2024-01-30T04:30:05;9.60;99.90
59857;DHT22;45733;52.668;6.860;2024-01-30T04:32:32;9.70;99.90
59857;DHT22;45733;52.668;6.860;2024-01-30T04:34:58;9.70;99.90
59857;DHT22;45733;52.668;6.860;2024-01-30T04:37:23;9.70;99.90
59857;DHT22;45733;52.668;6.860;2024-01-30T04:39:50;9.70;99.90
59857;DHT22;45733;52.668;6.860;2024-01-30T04:42:16;9.60;99.90
59857;DHT22;45733;52.668;6.860;2024-01-30T04:44:42;9.70;99.90
59857;DHT22;45733;52.668;6.860;2024-01-30T04:47:08;9.80;99.90
59857;DHT22;45733;52.668;6.860;2024-01-30T04:49:36;9.90;99.90
59857;DHT22;45733;52.668;6.860;2024-01-30T04:52:02;10.00;99.90
59857;DHT22;45733;52.668;6.860;2024-01-30T04:54:28;10.00;99.90
59857;DHT22;45733;52.668;6.860;2024-01-30T04:56:53;10.00;99.90
59857;DHT22;45733;52.668;6.860;2024-01-30T04:59:19;10.00;99.90
59857;DHT22;45733;52.668;6.860;2024-01-30T05:01:45;9.90;99.90
59857;DHT22;45733;52.668;6.860;2024-01-30T05:04:10;9.90;99.90
59857;DHT22;45733;52.668;6.860;2024-01-30T05:06:37;10.00;99.90
59857;DHT22;45733;52.668;6.860;2024-01-30T05:09:03;10.10;99.90
59857;DHT22;45733;52.668;6.860;2024-01-30T05:11:31;10.10;99.90
59857;DHT22;45733;52.668;6.860;2024-01-30T05:13:57;10.20;99.90
59857;DHT22;45733;52.668;6.860;2024-01-30T05:16:22;10.20;99.90
59857;DHT22;45733;52.668;6.860;2024-01-30T05:18:48;10.10;99.90
59857;DHT22;45733;52.668;6.860;2024-01-30T05:21:14;10.20;99.90
59857;DHT22;45733;52.668;6.860;2024-01-30T05:23:40;10.20;99.90
59857;DHT22;45733;52.668;6.860;2024-01-30T05:26:08;10.30;99.90
59857;DHT22;45733;52.668;6.860;2024-01-30T05:28:33;10.30;99.90
59857;DHT22;45733;52.668;6.860;2024-01-30T05:30:59;10.30;99.90
59857;DHT22;45733;52.668;6.860;2024-01-30T05:33:25;10.30;99.90
59857;DHT22;45733;52.668;6.860;2024-01-30T05:35:50;10.30;99.90
59857;DHT22;45733;52.668;6.860;2024-01-30T05:38:19;10.50;99.90
59857;DHT22;45733;52.668;6.860;2024-01-30T05:40:45;10.40;99.90
59857;DHT22;45733;52.668;6.860;2024-01-30T05:43:11;10.50;99.90
59857;DHT22;45733;52.668;6.860;2024-01-30T05:45:37;10.50;44.00
59857;DHT22;45733;52.668;6.860;2024-01-30T05:48:03;10.60;1.00
59857;DHT22;45733;52.668;6.860;2024-01-30T05:50:29;10.50;1.00
59857;DHT22;45733;52.668;6.860;2024-01-30T05:52:55;10.50;1.00
59857;DHT22;45733;52.668;6.860;2024-01-30T05:55:20;10.50;1.00
59857;DHT22;45733;52.668;6.860;2024-01-30T05:57:46;10.40;1.00
59857;DHT22;45733;52.668;6.860;2024-01-30T06:00:12;10.40;1.00
59857;DHT22;45733;52.668;6.860;2024-01-30T06:02:38;10.40;1.00
59857;DHT22;45733;52.668;6.860;2024-01-30T06:05:04;10.40;1.00
59857;DHT22;45733;52.668;6.860;2024-01-30T06:07:30;10.30;1.00
59857;DHT22;45733;52.668;6.860;2024-01-30T06:09:55;10.30;1.00
59857;DHT22;45733;52.668;6.860;2024-01-30T06:12:21;10.30;21.20
59857;DHT22;45733;52.668;6.860;2024-01-30T06:14:47;10.40;59.10
59857;DHT22;45733;52.668;6.860;2024-01-30T06:17:12;10.40;69.70
59857;DHT22;45733;52.668;6.860;2024-01-30T06:19:39;10.40;82.20
59857;DHT22;45733;52.668;6.860;2024-01-30T06:22:05;10.50;93.60
59857;DHT22;45733;52.668;6.860;2024-01-30T06:24:31;10.50;77.20
59857;DHT22;45733;52.668;6.860;2024-01-30T06:26:56;10.50;53.70
59857;DHT22;45733;52.668;6.860;2024-01-30T06:29:22;10.50;54.70
59857;DHT22;45733;52.668;6.860;2024-01-30T06:31:50;10.60;7.90
59857;DHT22;45733;52.668;6.860;2024-01-30T06:34:16;10.50;1.00
59857;DHT22;45733;52.668;6.860;2024-01-30T06:36:41;10.50;1.00
59857;DHT22;45733;52.668;6.860;2024-01-30T06:39:07;10.50;1.00
59857;DHT22;45733;52.668;6.860;2024-01-30T06:41:33;10.60;1.00
59857;DHT22;45733;52.668;6.860;2024-01-30T06:43:59;10.60;1.00
59857;DHT22;45733;52.668;6.860;2024-01-30T06:46:25;10.60;1.00
59857;DHT22;45733;52.668;6.860;2024-01-30T06:48:50;10.60;1.00
59857;DHT22;45733;52.668;6.860;2024-01-30T06:51:16;10.60;1.00
59857;DHT22;45733;52.668;6.860;2024-01-30T06:53:42;10.60;1.00
59857;DHT22;45733;52.668;6.860;2024-01-30T06:56:08;10.60;1.00
59857;DHT22;45733;52.668;6.860;2024-01-30T06:58:34;10.50;1.00
59857;DHT22;45733;52.668;6.860;2024-01-30T07:00:59;10.50;1.00
59857;DHT22;45733;52.668;6.860;2024-01-30T07:03:25;10.50;1.00
59857;DHT22;45733;52.668;6.860;2024-01-30T07:05:51;10.50;1.00
59857;DHT22;45733;52.668;6.860;2024-01-30T07:08:17;10.50;1.00
59857;DHT22;45733;52.668;6.860;2024-01-30T07:10:43;10.50;1.00
59857;DHT22;45733;52.668;6.860;2024-01-30T07:13:10;10.60;1.00
59857;DHT22;45733;52.668;6.860;2024-01-30T07:15:36;10.60;1.00
59857;DHT22;45733;52.668;6.860;2024-01-30T07:18:03;10.60;1.00
59857;DHT22;45733;52.668;6.860;2024-01-30T07:20:28;10.60;1.00
59857;DHT22;45733;52.668;6.860;2024-01-30T07:22:56;10.70;1.00
59857;DHT22;45733;52.668;6.860;2024-01-30T07:25:22;10.70;1.00
59857;DHT22;45733;52.668;6.860;2024-01-30T07:27:52;10.70;1.00
59857;DHT22;45733;52.668;6.860;2024-01-30T07:30:18;10.70;1.00
59857;DHT22;45733;52.668;6.860;2024-01-30T07:32:44;10.70;1.00
59857;DHT22;45733;52.668;6.860;2024-01-30T07:35:09;10.80;1.00
59857;DHT22;45733;52.668;6.860;2024-01-30T07:37:36;10.70;1.00
59857;DHT22;45733;52.668;6.860;2024-01-30T07:40:03;10.70;1.00
59857;DHT22;45733;52.668;6.860;2024-01-30T07:42:29;10.80;1.00
59857;DHT22;45733;52.668;6.860;2024-01-30T07:44:55;10.80;1.00
59857;DHT22;45733;52.668;6.860;2024-01-30T07:47:20;10.80;1.00
59857;DHT22;45733;52.668;6.860;2024-01-30T07:49:46;10.80;1.00
59857;DHT22;45733;52.668;6.860;2024-01-30T07:52:13;10.90;1.00
59857;DHT22;45733;52.668;6.860;2024-01-30T07:54:48;10.90;1.00
59857;DHT22;45733;52.668;6.860;2024-01-30T07:57:15;10.80;1.00
59857;DHT22;45733;52.668;6.860;2024-01-30T07:59:43;10.80;1.00
59857;DHT22;45733;52.668;6.860;2024-01-30T08:02:10;10.80;1.00
59857;DHT22;45733;52.668;6.860;2024-01-30T08:04:36;10.90;1.00
59857;DHT22;45733;52.668;6.860;2024-01-30T08:07:01;10.90;1.00
59857;DHT22;45733;52.668;6.860;2024-01-30T08:09:27;10.90;1.00
59857;DHT22;45733;52.668;6.860;2024-01-30T08:11:53;10.90;1.00
59857;DHT22;45733;52.668;6.860;2024-01-30T08:14:19;10.90;1.00
59857;DHT22;45733;52.668;6.860;2024-01-30T08:16:44;10.80;1.00
59857;DHT22;45733;52.668;6.860;2024-01-30T08:19:10;10.90;1.00
59857;DHT22;45733;52.668;6.860;2024-01-30T08:21:36;10.90;1.00
59857;DHT22;45733;52.668;6.860;2024-01-30T08:24:05;10.90;1.00
59857;DHT22;45733;52.668;6.860;2024-01-30T08:26:32;10.90;1.00
59857;DHT22;45733;52.668;6.860;2024-01-30T08:28:58;10.90;8.20
59857;DHT22;45733;52.668;6.860;2024-01-30T08:31:24;11.00;27.90
59857;DHT22;45733;52.668;6.860;2024-01-30T08:33:50;11.10;27.90
59857;DHT22;45733;52.668;6.860;2024-01-30T08:36:16;11.00;10.10
59857;DHT22;45733;52.668;6.860;2024-01-30T08:38:42;11.10;1.00
59857;DHT22;45733;52.668;6.860;2024-01-30T08:41:08;11.10;1.00
59857;DHT22;45733;52.668;6.860;2024-01-30T08:43:33;11.20;1.00
59857;DHT22;45733;52.668;6.860;2024-01-30T08:46:00;11.30;1.00
59857;DHT22;45733;52.668;6.860;2024-01-30T08:48:26;11.30;1.00
59857;DHT22;45733;52.668;6.860;2024-01-30T08:50:51;11.40;1.00
59857;DHT22;45733;52.668;6.860;2024-01-30T08:53:17;11.50;1.00
59857;DHT22;45733;52.668;6.860;2024-01-30T08:55:43;11.60;1.00
59857;DHT22;45733;52.668;6.860;2024-01-30T08:58:08;11.60;1.00
59857;DHT22;45733;52.668;6.860;2024-01-30T09:00:34;11.70;1.00
59857;DHT22;45733;52.668;6.860;2024-01-30T09:03:00;11.70;1.00
59857;DHT22;45733;52.668;6.860;2024-01-30T09:05:26;11.80;99.90
59857;DHT22;45733;52.668;6.860;2024-01-30T09:07:51;11.80;99.90
59857;DHT22;45733;52.668;6.860;2024-01-30T09:10:17;11.80;99.90
59857;DHT22;45733;52.668;6.860;2024-01-30T09:12:42;11.90;99.90
59857;DHT22;45733;52.668;6.860;2024-01-30T09:15:08;11.90;99.90
59857;DHT22;45733;52.668;6.860;2024-01-30T09:17:34;11.90;99.90
59857;DHT22;45733;52.668;6.860;2024-01-30T09:20:00;12.00;99.90
59857;DHT22;45733;52.668;6.860;2024-01-30T09:22:26;12.00;99.90
59857;DHT22;45733;52.668;6.860;2024-01-30T09:24:51;12.00;99.90
59857;DHT22;45733;52.668;6.860;2024-01-30T09:27:17;12.00;99.90
59857;DHT22;45733;52.668;6.860;2024-01-30T09:29:43;12.10;99.90
59857;DHT22;45733;52.668;6.860;2024-01-30T09:32:08;12.10;99.90
59857;DHT22;45733;52.668;6.860;2024-01-30T09:34:34;12.10;99.90
59857;DHT22;45733;52.668;6.860;2024-01-30T09:37:00;12.10;99.90
59857;DHT22;45733;52.668;6.860;2024-01-30T09:39:26;12.20;78.80
59857;DHT22;45733;52.668;6.860;2024-01-30T09:44:33;12.30;99.90
59857;DHT22;45733;52.668;6.860;2024-01-30T09:47:00;12.40;99.90
59857;DHT22;45733;52.668;6.860;2024-01-30T09:49:31;12.50;71.10
59857;DHT22;45733;52.668;6.860;2024-01-30T09:51:57;12.70;1.00
59857;DHT22;45733;52.668;6.860;2024-01-30T09:54:23;12.70;1.00
59857;DHT22;45733;52.668;6.860;2024-01-30T09:56:49;12.80;1.00
59857;DHT22;45733;52.668;6.860;2024-01-30T09:59:15;12.70;1.00
59857;DHT22;45733;52.668;6.860;2024-01-30T10:01:41;12.70;1.00
59857;DHT22;45733;52.668;6.860;2024-01-30T10:04:07;12.60;1.00
59857;DHT22;45733;52.668;6.860;2024-01-30T10:06:34;12.60;1.00
59857;DHT22;45733;52.668;6.860;2024-01-30T10:08:59;12.50;1.00
59857;DHT22;45733;52.668;6.860;2024-01-30T10:11:25;12.60;1.00
59857;DHT22;45733;52.668;6.860;2024-01-30T10:13:51;12.60;1.00
59857;DHT22;45733;52.668;6.860;2024-01-30T10:16:17;12.60;1.00
59857;DHT22;45733;52.668;6.860;2024-01-30T10:18:42;12.60;1.00
59857;DHT22;45733;52.668;6.860;2024-01-30T10:21:09;12.60;17.30
59857;DHT22;45733;52.668;6.860;2024-01-30T10:23:36;12.70;83.50
59857;DHT22;45733;52.668;6.860;2024-01-30T10:26:07;12.70;6.20
59857;DHT22;45733;52.668;6.860;2024-01-30T10:28:33;12.70;2.50
59857;DHT22;45733;52.668;6.860;2024-01-30T10:30:59;12.80;1.00
59857;DHT22;45733;52.668;6.860;2024-01-30T10:33:26;12.90;1.00
59857;DHT22;45733;52.668;6.860;2024-01-30T10:35:56;12.90;1.00
59857;DHT22;45733;52.668;6.860;2024-01-30T10:38:28;12.90;1.00
59857;DHT22;45733;52.668;6.860;2024-01-30T10:40:57;13.10;1.00
59857;DHT22;45733;52.668;6.860;2024-01-30T10:43:24;13.00;1.00
59857;DHT22;45733;52.668;6.860;2024-01-30T10:45:53;13.10;1.00
59857;DHT22;45733;52.668;6.860;2024-01-30T10:48:22;13.10;1.00
59857;DHT22;45733;52.668;6.860;2024-01-30T10:50:53;13.10;1.00
59857;DHT22;45733;52.668;6.860;2024-01-30T10:53:21;13.10;1.00
59857;DHT22;45733;52.668;6.860;2024-01-30T10:55:47;13.10;1.00
59857;DHT22;45733;52.668;6.860;2024-01-30T10:58:14;13.20;1.00
59857;DHT22;45733;52.668;6.860;2024-01-30T11:00:40;13.20;1.00
59857;DHT22;45733;52.668;6.860;2024-01-30T11:03:07;13.30;1.00
59857;DHT22;45733;52.668;6.860;2024-01-30T11:05:33;13.20;1.00
59857;DHT22;45733;52.668;6.860;2024-01-30T11:07:59;13.30;1.00
59857;DHT22;45733;52.668;6.860;2024-01-30T11:10:25;13.30;1.00
59857;DHT22;45733;52.668;6.860;2024-01-30T11:12:51;13.30;1.00
59857;DHT22;45733;52.668;6.860;2024-01-30T11:15:17;13.20;1.00
59857;DHT22;45733;52.668;6.860;2024-01-30T11:20:25;13.20;1.00
59857;DHT22;45733;52.668;6.860;2024-01-30T11:22:53;13.20;1.00
59857;DHT22;45733;52.668;6.860;2024-01-30T11:25:21;13.30;31.00
59857;DHT22;45733;52.668;6.860;2024-01-30T11:27:50;13.20;93.40
59857;DHT22;45733;52.668;6.860;2024-01-30T11:30:25;13.30;71.90
59857;DHT22;45733;52.668;6.860;2024-01-30T11:33:11;13.40;56.40
59857;DHT22;45733;52.668;6.860;2024-01-30T11:35:41;13.50;88.40
59857;DHT22;45733;52.668;6.860;2024-01-30T11:38:09;13.60;25.00
59857;DHT22;45733;52.668;6.860;2024-01-30T11:40:37;13.60;1.00
59857;DHT22;45733;52.668;6.860;2024-01-30T11:43:05;13.60;1.00
59857;DHT22;45733;52.668;6.860;2024-01-30T11:45:31;13.60;1.00
59857;DHT22;45733;52.668;6.860;2024-01-30T11:47:58;13.60;1.00
59857;DHT22;45733;52.668;6.860;2024-01-30T11:50:25;13.60;1.00
59857;DHT22;45733;52.668;6.860;2024-01-30T11:52:51;13.60;1.00
59857;DHT22;45733;52.668;6.860;2024-01-30T11:55:18;13.60;1.00
59857;DHT22;45733;52.668;6.860;2024-01-30T11:57:44;13.50;1.00
59857;DHT22;45733;52.668;6.860;2024-01-30T12:00:17;13.60;1.00
59857;DHT22;45733;52.668;6.860;2024-01-30T12:02:44;13.50;65.00
59857;DHT22;45733;52.668;6.860;2024-01-30T12:05:14;13.60;87.50
59857;DHT22;45733;52.668;6.860;2024-01-30T12:07:40;13.60;99.90
59857;DHT22;45733;52.668;6.860;2024-01-30T12:10:05;13.70;99.90
59857;DHT22;45733;52.668;6.860;2024-01-30T12:12:33;13.70;99.90
59857;DHT22;45733;52.668;6.860;2024-01-30T12:14:59;13.70;1.00
59857;DHT22;45733;52.668;6.860;2024-01-30T12:17:30;13.70;1.00
59857;DHT22;45733;52.668;6.860;2024-01-30T12:20:14;13.70;1.00
59857;DHT22;45733;52.668;6.860;2024-01-30T12:22:45;13.80;1.00
59857;DHT22;45733;52.668;6.860;2024-01-30T12:25:12;13.80;1.00
59857;DHT22;45733;52.668;6.860;2024-01-30T12:27:39;13.80;1.00
59857;DHT22;45733;52.668;6.860;2024-01-30T12:30:12;13.90;1.00
59857;DHT22;45733;52.668;6.860;2024-01-30T12:32:41;14.00;1.00
59857;DHT22;45733;52.668;6.860;2024-01-30T12:35:14;14.00;99.90
59857;DHT22;45733;52.668;6.860;2024-01-30T12:37:41;14.10;99.90
59857;DHT22;45733;52.668;6.860;2024-01-30T12:40:08;14.30;99.90
59857;DHT22;45733;52.668;6.860;2024-01-30T12:42:35;14.80;99.90
59857;DHT22;45733;52.668;6.860;2024-01-30T12:45:02;14.70;99.90
59857;DHT22;45733;52.668;6.860;2024-01-30T12:47:29;14.70;99.90
59857;DHT22;45733;52.668;6.860;2024-01-30T12:49:54;14.50;1.00
59857;DHT22;45733;52.668;6.860;2024-01-30T12:52:21;14.40;1.00
59857;DHT22;45733;52.668;6.860;2024-01-30T12:54:48;14.40;1.00
59857;DHT22;45733;52.668;6.860;2024-01-30T12:57:13;14.40;1.00
59857;DHT22;45733;52.668;6.860;2024-01-30T12:59:39;14.30;1.00
59857;DHT22;45733;52.668;6.860;2024-01-30T13:02:05;14.30;1.00
59857;DHT22;45733;52.668;6.860;2024-01-30T13:04:31;14.30;1.00
59857;DHT22;45733;52.668;6.860;2024-01-30T13:06:57;14.30;1.00
59857;DHT22;45733;52.668;6.860;2024-01-30T13:09:23;14.30;1.00
59857;DHT22;45733;52.668;6.860;2024-01-30T13:11:50;14.30;1.00
59857;DHT22;45733;52.668;6.860;2024-01-30T13:14:17;14.30;1.00
59857;DHT22;45733;52.668;6.860;2024-01-30T13:16:43;14.40;1.00
59857;DHT22;45733;52.668;6.860;2024-01-30T13:19:09;14.30;1.00
59857;DHT22;45733;52.668;6.860;2024-01-30T13:21:34;14.10;1.00
59857;DHT22;45733;52.668;6.860;2024-01-30T13:24:00;14.00;1.00
59857;DHT22;45733;52.668;6.860;2024-01-30T13:26:26;14.00;1.00
59857;DHT22;45733;52.668;6.860;2024-01-30T13:28:51;13.90;1.00
59857;DHT22;45733;52.668;6.860;2024-01-30T13:31:17;13.90;1.00
59857;DHT22;45733;52.668;6.860;2024-01-30T13:33:44;13.80;1.00
59857;DHT22;45733;52.668;6.860;2024-01-30T13:36:10;13.80;1.00
59857;DHT22;45733;52.668;6.860;2024-01-30T13:38:37;13.90;1.00
59857;DHT22;45733;52.668;6.860;2024-01-30T13:41:03;13.90;1.00
59857;DHT22;45733;52.668;6.860;2024-01-30T13:43:29;13.80;1.00
59857;DHT22;45733;52.668;6.860;2024-01-30T13:45:55;13.70;1.00
59857;DHT22;45733;52.668;6.860;2024-01-30T13:48:21;13.70;1.00
59857;DHT22;45733;52.668;6.860;2024-01-30T13:50:47;13.60;1.00
59857;DHT22;45733;52.668;6.860;2024-01-30T13:53:13;13.50;1.00
59857;DHT22;45733;52.668;6.860;2024-01-30T13:55:39;13.60;1.00
59857;DHT22;45733;52.668;6.860;2024-01-30T13:58:06;13.90;1.00
59857;DHT22;45733;52.668;6.860;2024-01-30T14:00:32;13.70;99.90
59857;DHT22;45733;52.668;6.860;2024-01-30T14:02:58;13.50;99.90
59857;DHT22;45733;52.668;6.860;2024-01-30T14:05:24;13.50;99.90
59857;DHT22;45733;52.668;6.860;2024-01-30T14:07:51;13.40;99.90
59857;DHT22;45733;52.668;6.860;2024-01-30T14:10:17;13.40;99.90
59857;DHT22;45733;52.668;6.860;2024-01-30T14:12:44;13.30;1.00
59857;DHT22;45733;52.668;6.860;2024-01-30T14:15:10;13.20;1.00
59857;DHT22;45733;52.668;6.860;2024-01-30T14:17:36;13.10;1.00
59857;DHT22;45733;52.668;6.860;2024-01-30T14:20:03;13.10;1.00
59857;DHT22;45733;52.668;6.860;2024-01-30T14:22:33;13.10;1.00
59857;DHT22;45733;52.668;6.860;2024-01-30T14:24:59;13.00;1.00
59857;DHT22;45733;52.668;6.860;2024-01-30T14:27:25;12.90;1.00
59857;DHT22;45733;52.668;6.860;2024-01-30T14:29:50;12.90;1.00
59857;DHT22;45733;52.668;6.860;2024-01-30T14:32:16;12.80;1.00
59857;DHT22;45733;52.668;6.860;2024-01-30T14:34:42;12.80;1.00
59857;DHT22;45733;52.668;6.860;2024-01-30T14:37:07;12.70;1.00
59857;DHT22;45733;52.668;6.860;2024-01-30T14:39:33;12.70;1.00
59857;DHT22;45733;52.668;6.860;2024-01-30T14:41:59;12.70;1.00
59857;DHT22;45733;52.668;6.860;2024-01-30T14:44:25;12.60;1.00
59857;DHT22;45733;52.668;6.860;2024-01-30T14:46:51;12.60;1.00
59857;DHT22;45733;52.668;6.860;2024-01-30T14:49:17;12.60;1.00
59857;DHT22;45733;52.668;6.860;2024-01-30T14:51:43;12.60;1.00
59857;DHT22;45733;52.668;6.860;2024-01-30T14:54:08;12.50;1.00
59857;DHT22;45733;52.668;6.860;2024-01-30T14:56:34;12.50;99.90
59857;DHT22;45733;52.668;6.860;2024-01-30T14:59:00;12.50;99.90
59857;DHT22;45733;52.668;6.860;2024-01-30T15:01:26;12.50;99.90
59857;DHT22;45733;52.668;6.860;2024-01-30T15:03:52;12.50;99.90
59857;DHT22;45733;52.668;6.860;2024-01-30T15:06:18;12.40;99.90
59857;DHT22;45733;52.668;6.860;2024-01-30T15:08:44;12.40;1.00
59857;DHT22;45733;52.668;6.860;2024-01-30T15:11:10;12.40;1.00
59857;DHT22;45733;52.668;6.860;2024-01-30T15:13:36;12.30;1.00
59857;DHT22;45733;52.668;6.860;2024-01-30T15:16:03;12.30;1.00
59857;DHT22;45733;52.668;6.860;2024-01-30T15:18:30;12.30;1.00
59857;DHT22;45733;52.668;6.860;2024-01-30T15:20:56;12.20;1.00
59857;DHT22;45733;52.668;6.860;2024-01-30T15:23:22;12.20;1.00
59857;DHT22;45733;52.668;6.860;2024-01-30T15:25:48;12.20;1.00
59857;DHT22;45733;52.668;6.860;2024-01-30T15:28:13;12.10;28.60
59857;DHT22;45733;52.668;6.860;2024-01-30T15:30:40;12.10;36.30
59857;DHT22;45733;52.668;6.860;2024-01-30T15:33:10;12.10;99.70
59857;DHT22;45733;52.668;6.860;2024-01-30T15:35:36;12.10;99.90
59857;DHT22;45733;52.668;6.860;2024-01-30T15:38:04;12.00;99.90
59857;DHT22;45733;52.668;6.860;2024-01-30T15:40:29;12.00;99.90
59857;DHT22;45733;52.668;6.860;2024-01-30T15:42:55;11.90;99.90